Kezdőlap
METAR-TAF:

METAR-TAF

Repülőterek :

Zinder, Niger

földrajzi szélesség: 13-47N, földrajzi hosszúság: 008-59E, magasság: 452 m

Jelenlegi meteorológiai megfigyelések

A jelentés 19 órával és 41 perccel ezelõtt készült, 05:00 UTC
Különbözõ irányokból fújó szél 2 kt
Hőmérséklet 28°C
Páratartalom 15%
Légköri nyomás 1011 hPa
Látótávolság: 8000 m

METAR: DRZR 190500Z VRB02KT 8000 NSC 28/M01 Q1011

Idő: 01:41 (00:41 UTC)

Előrejelzés

A jelentés 1 órával és 41 perccel ezelõtt készült, 23:00 UTC
Az előrejelzés 20-én 00 óra UTC és 20-én 24 óra UTC között érvényes
Észak-északnyugati szél 5 kt
Látótávolság: 8000 m

TAF: DRZR 192300Z 2000/2024 34005KT 8000 NSC

Meteorológiai megfigyelések és előrejelzések több, mint 4000 repülőtéren (METAR és TAF jelentéseket).

A térképen piros és sárga pontok jelzik az elérhető meteorológiai állomásokat.

Mozgassa az egeret a pont fölött, hogy megjelenjen az állomás neve.

Azután kattintson az időjárási megfigyelések és előrejelzések megtekintéséhez.

A térkép megváltoztatása: kattintson a fekete keresztel jelölt zöld gombra ráközelítéshez, a vonallal jelölt zöld gombra távolításhoz, vagy a zöld nyilakra a szomszédos térképek eléréséhez.


METAR-TAF: